Time;durP1;ratioP1;P1;durP2;ratioP2;P2;SDS_P1;SDS_P2;PMS_P1;PMS_P2;Temp;Humidity;BMP_temperature;BMP_pressure;BME280_temperature;BME280_humidity;BME280_pressure;Samples;Min_cycle;Max_cycle;Signal;HPM_P1;HPM_P2
2023/05/27 00:00:32;;;;;;;10.85;1.83;;;9.10;99.90;;;;;;4993244;28;20034;-89
2023/05/27 00:03:00;;;;;;;13.65;2.35;;;9.10;99.90;;;;;;4969877;28;20113;-88
2023/05/27 00:05:26;;;;;;;9.15;1.90;;;9.20;99.90;;;;;;4977149;28;20034;-89
2023/05/27 00:07:51;;;;;;;10.38;2.70;;;9.10;99.90;;;;;;4978811;28;20027;-88
2023/05/27 00:10:17;;;;;;;13.32;2.08;;;9.10;99.90;;;;;;4987708;28;20031;-89
2023/05/27 00:12:43;;;;;;;12.80;2.28;;;9.10;99.90;;;;;;4974016;28;20077;-89
2023/05/27 00:15:09;;;;;;;13.88;2.05;;;9.10;99.90;;;;;;4987773;28;20249;-90
2023/05/27 00:17:35;;;;;;;14.85;2.22;;;9.10;99.90;;;;;;4978187;28;20030;-90
2023/05/27 00:20:06;;;;;;;11.10;1.67;;;9.10;99.90;;;;;;4995015;28;20044;-90
2023/05/27 00:22:32;;;;;;;11.67;2.03;;;9.00;99.90;;;;;;4979021;28;20064;-90
2023/05/27 00:24:57;;;;;;;13.70;1.83;;;9.00;99.90;;;;;;4988205;28;20069;-90
2023/05/27 00:27:23;;;;;;;12.82;2.40;;;9.00;99.90;;;;;;4959147;28;20554;-89
2023/05/27 00:29:48;;;;;;;15.30;1.85;;;9.00;99.90;;;;;;4961067;28;20058;-89
2023/05/27 00:32:14;;;;;;;10.35;2.08;;;9.00;99.90;;;;;;4980298;28;20034;-89
2023/05/27 00:34:39;;;;;;;12.32;1.67;;;9.00;99.90;;;;;;4977863;28;20123;-89
2023/05/27 00:37:06;;;;;;;13.50;2.13;;;9.00;99.90;;;;;;4974053;28;20023;-89
2023/05/27 00:39:31;;;;;;;15.57;2.83;;;9.00;99.90;;;;;;4984276;28;20081;-90
2023/05/27 00:41:58;;;;;;;13.70;1.98;;;9.00;99.90;;;;;;4984178;28;20034;-89
2023/05/27 00:44:23;;;;;;;14.63;2.25;;;9.00;99.90;;;;;;4977875;28;20113;-89
2023/05/27 00:46:49;;;;;;;11.60;1.63;;;9.00;99.90;;;;;;4996164;28;20116;-90
2023/05/27 00:49:14;;;;;;;15.30;2.10;;;9.00;99.90;;;;;;5007024;28;20037;-90
2023/05/27 00:51:40;;;;;;;14.82;2.05;;;8.90;99.90;;;;;;4977755;28;20112;-89
2023/05/27 00:54:08;;;;;;;17.13;2.38;;;8.90;99.90;;;;;;4963632;28;20037;-89
2023/05/27 00:56:33;;;;;;;15.70;2.50;;;8.90;99.90;;;;;;4995360;28;20046;-89
2023/05/27 00:59:00;;;;;;;12.57;2.10;;;8.90;99.90;;;;;;4978324;28;20070;-89
2023/05/27 01:01:26;;;;;;;15.63;2.35;;;8.90;99.90;;;;;;4984972;28;20022;-89
2023/05/27 01:03:53;;;;;;;18.17;2.53;;;8.90;99.90;;;;;;4981185;28;20120;-89
2023/05/27 01:06:28;;;;;;;12.88;2.05;;;8.80;99.90;;;;;;4976043;28;20023;-88
2023/05/27 01:09:20;;;;;;;14.45;2.28;;;8.80;99.90;;;;;;4985442;28;20031;-89
2023/05/27 01:12:07;;;;;;;10.18;2.45;;;8.80;99.90;;;;;;4974041;28;20049;-90
2023/05/27 01:14:34;;;;;;;13.35;2.25;;;8.80;99.90;;;;;;4974943;28;20093;-89
2023/05/27 01:17:03;;;;;;;9.27;1.95;;;8.70;99.90;;;;;;4976454;28;20026;-89
2023/05/27 01:19:33;;;;;;;13.63;2.05;;;8.70;99.90;;;;;;4970270;28;20481;-90
2023/05/27 01:22:00;;;;;;;12.25;2.10;;;8.70;99.90;;;;;;4999107;28;20061;-89
2023/05/27 01:24:26;;;;;;;11.00;2.28;;;8.70;99.90;;;;;;4986517;28;20050;-90
2023/05/27 01:26:52;;;;;;;19.15;2.90;;;8.70;99.90;;;;;;4983023;28;20116;-90
2023/05/27 01:29:17;;;;;;;9.60;2.40;;;8.70;99.90;;;;;;4976006;28;20037;-90
2023/05/27 01:31:56;;;;;;;15.23;2.67;;;8.60;99.90;;;;;;4974884;28;20379;-90
2023/05/27 01:34:27;;;;;;;14.95;3.15;;;8.70;99.90;;;;;;4990684;28;20054;-89
2023/05/27 01:36:58;;;;;;;18.77;3.40;;;8.70;99.90;;;;;;4981060;28;20061;-89
2023/05/27 01:39:25;;;;;;;14.25;2.67;;;8.60;99.90;;;;;;4977470;28;20332;-89
2023/05/27 01:41:52;;;;;;;13.38;2.83;;;8.60;99.90;;;;;;4989386;28;20049;-90
2023/05/27 01:44:19;;;;;;;15.63;2.47;;;8.60;99.90;;;;;;5012733;28;20092;-89
2023/05/27 01:46:45;;;;;;;15.43;2.30;;;8.60;99.90;;;;;;4983514;28;20033;-90
2023/05/27 01:49:10;;;;;;;15.68;2.83;;;8.60;99.90;;;;;;4970520;28;20023;-90
2023/05/27 01:51:36;;;;;;;15.20;2.92;;;8.50;99.90;;;;;;4962156;28;20074;-89
2023/05/27 01:54:02;;;;;;;18.98;2.90;;;8.50;99.90;;;;;;4956645;28;20030;-89
2023/05/27 01:56:29;;;;;;;12.07;2.42;;;8.50;99.90;;;;;;4975560;28;20095;-89
2023/05/27 01:58:55;;;;;;;10.55;2.97;;;8.50;99.90;;;;;;4987079;28;20073;-90
2023/05/27 02:01:21;;;;;;;13.30;2.40;;;8.40;99.90;;;;;;4975275;28;20030;-90
2023/05/27 02:03:47;;;;;;;16.20;2.88;;;8.40;99.90;;;;;;4976111;28;20060;-90
2023/05/27 02:06:13;;;;;;;15.65;2.67;;;8.30;99.90;;;;;;4975023;28;20050;-90
2023/05/27 02:08:38;;;;;;;18.83;2.97;;;8.30;99.90;;;;;;4979987;28;20605;-90
2023/05/27 02:11:04;;;;;;;16.45;2.97;;;8.30;99.90;;;;;;4976655;28;20025;-90
2023/05/27 02:13:29;;;;;;;14.25;2.85;;;8.20;99.90;;;;;;4976392;28;20470;-89
2023/05/27 02:15:55;;;;;;;10.43;2.97;;;8.30;99.90;;;;;;4975478;28;20026;-90
2023/05/27 02:18:20;;;;;;;13.82;3.15;;;8.20;99.90;;;;;;4958623;28;20111;-90
2023/05/27 02:20:46;;;;;;;9.80;3.60;;;8.10;99.90;;;;;;4990850;28;20049;-90
2023/05/27 02:23:12;;;;;;;16.02;4.43;;;8.20;99.90;;;;;;4994938;28;20497;-90
2023/05/27 02:25:38;;;;;;;12.70;2.50;;;8.10;99.90;;;;;;4991102;28;20486;-90
2023/05/27 02:28:03;;;;;;;17.80;2.58;;;8.10;99.90;;;;;;4974130;28;20462;-89
2023/05/27 02:30:30;;;;;;;15.07;3.40;;;8.10;99.90;;;;;;4992372;28;20397;-90
2023/05/27 02:32:56;;;;;;;19.02;4.18;;;8.00;99.90;;;;;;4979514;28;20406;-89
2023/05/27 02:35:22;;;;;;;11.75;2.97;;;8.00;99.90;;;;;;4959169;28;20058;-89
2023/05/27 02:37:47;;;;;;;16.67;2.70;;;8.00;99.90;;;;;;4952115;28;20103;-89
2023/05/27 02:40:29;;;;;;;16.10;3.83;;;7.90;99.90;;;;;;4953185;28;20483;-89
2023/05/27 02:42:58;;;;;;;18.08;3.40;;;8.00;99.90;;;;;;4965368;28;20106;-90
2023/05/27 02:45:24;;;;;;;11.90;3.17;;;7.90;99.90;;;;;;4954647;28;20038;-89
2023/05/27 02:47:50;;;;;;;11.75;2.95;;;7.80;99.90;;;;;;4944036;28;20023;-90
2023/05/27 02:50:15;;;;;;;13.63;3.35;;;7.80;99.90;;;;;;4945286;29;20440;-88
2023/05/27 02:52:41;;;;;;;17.10;4.22;;;7.80;99.90;;;;;;4952998;28;20074;-89
2023/05/27 02:55:07;;;;;;;17.77;3.05;;;7.80;99.90;;;;;;4955235;29;20387;-89
2023/05/27 02:57:33;;;;;;;19.58;3.67;;;7.80;99.90;;;;;;4949953;28;20086;-89
2023/05/27 02:59:59;;;;;;;15.98;3.65;;;7.80;99.90;;;;;;4940499;29;20563;-90
2023/05/27 03:02:24;;;;;;;18.05;4.07;;;7.70;99.90;;;;;;4953599;29;20135;-89
2023/05/27 03:04:50;;;;;;;20.60;3.60;;;7.70;99.90;;;;;;4948345;28;20392;-89
2023/05/27 03:07:15;;;;;;;17.92;3.45;;;7.70;99.90;;;;;;4955023;29;20024;-89
2023/05/27 03:09:41;;;;;;;17.27;3.35;;;7.70;99.90;;;;;;4953123;29;20067;-89
2023/05/27 03:12:07;;;;;;;16.88;3.83;;;7.60;99.90;;;;;;4954993;28;20428;-90
2023/05/27 03:14:33;;;;;;;13.50;3.53;;;7.60;99.90;;;;;;4954569;29;20035;-90
2023/05/27 03:16:58;;;;;;;13.27;3.30;;;7.60;99.90;;;;;;4949418;28;20027;-89
2023/05/27 03:19:24;;;;;;;15.77;4.35;;;7.60;99.90;;;;;;4946356;29;20035;-89
2023/05/27 03:21:50;;;;;;;11.85;3.58;;;7.50;99.90;;;;;;4942977;29;20032;-89
2023/05/27 03:24:16;;;;;;;16.42;3.80;;;7.50;99.90;;;;;;4955156;28;20142;-89
2023/05/27 03:26:42;;;;;;;14.90;3.22;;;7.40;99.90;;;;;;4946993;29;20047;-89
2023/05/27 03:29:07;;;;;;;14.32;3.55;;;7.40;99.90;;;;;;4947400;29;20035;-90
2023/05/27 03:31:33;;;;;;;12.57;3.35;;;7.40;99.90;;;;;;4959127;28;20498;-90
2023/05/27 03:33:58;;;;;;;19.33;3.67;;;7.30;99.90;;;;;;4937262;29;20059;-90
2023/05/27 03:36:26;;;;;;;14.15;4.53;;;7.30;99.90;;;;;;4947567;28;20051;-90
2023/05/27 03:38:51;;;;;;;12.40;4.32;;;7.30;99.90;;;;;;4953914;28;20510;-89
2023/05/27 03:41:17;;;;;;;17.35;4.45;;;7.30;99.90;;;;;;4947510;28;20031;-90
2023/05/27 03:43:42;;;;;;;16.00;4.90;;;7.30;99.90;;;;;;4951601;28;20027;-90
2023/05/27 03:46:08;;;;;;;21.73;5.30;;;7.30;99.90;;;;;;4953823;28;20365;-89
2023/05/27 03:48:34;;;;;;;17.05;3.88;;;7.30;99.90;;;;;;4960099;28;20538;-89
2023/05/27 03:50:59;;;;;;;19.15;4.00;;;7.30;99.90;;;;;;4954428;28;20078;-89
2023/05/27 03:53:25;;;;;;;15.95;4.40;;;7.30;99.90;;;;;;4955320;29;20023;-88
2023/05/27 03:55:50;;;;;;;14.35;3.97;;;7.30;99.90;;;;;;4955769;29;20020;-89
2023/05/27 03:58:16;;;;;;;11.45;3.15;;;7.30;99.90;;;;;;4954856;28;20130;-89
2023/05/27 04:00:42;;;;;;;22.90;4.10;;;7.30;99.90;;;;;;4952479;29;20034;-89
2023/05/27 04:03:08;;;;;;;21.27;3.42;;;7.30;99.90;;;;;;4955751;28;20031;-89
2023/05/27 04:05:35;;;;;;;22.30;4.18;;;7.30;99.90;;;;;;4974623;28;20027;-89
2023/05/27 04:08:02;;;;;;;16.38;3.67;;;7.30;99.90;;;;;;4975085;28;20442;-88
2023/05/27 04:10:27;;;;;;;17.23;4.07;;;7.40;99.90;;;;;;4954386;28;20027;-89
2023/05/27 04:12:53;;;;;;;19.90;4.53;;;7.30;99.90;;;;;;4953715;29;20028;-90
2023/05/27 04:15:18;;;;;;;15.85;4.40;;;7.40;99.90;;;;;;4958258;28;20518;-89
2023/05/27 04:17:44;;;;;;;17.52;3.60;;;7.40;99.90;;;;;;4974706;28;20399;-89
2023/05/27 04:20:13;;;;;;;16.80;4.05;;;7.40;99.90;;;;;;4956565;28;20555;-89
2023/05/27 04:22:43;;;;;;;16.08;4.80;;;7.40;99.90;;;;;;4952746;29;20054;-89
2023/05/27 04:25:08;;;;;;;18.20;3.97;;;7.50;99.90;;;;;;4954950;28;20097;-89
2023/05/27 04:27:34;;;;;;;15.20;4.20;;;7.50;99.90;;;;;;4966168;28;20483;-89
2023/05/27 04:30:00;;;;;;;15.75;3.85;;;7.60;99.90;;;;;;4959156;28;20047;-89
2023/05/27 04:32:27;;;;;;;19.25;4.00;;;7.60;99.90;;;;;;4954140;28;20139;-89
2023/05/27 04:34:53;;;;;;;17.08;4.25;;;7.60;99.90;;;;;;4958404;28;20054;-89
2023/05/27 04:37:19;;;;;;;15.40;4.10;;;7.70;99.90;;;;;;4954237;29;20042;-89
2023/05/27 04:39:46;;;;;;;18.83;3.90;;;7.70;99.90;;;;;;4958123;28;20039;-90
2023/05/27 04:42:12;;;;;;;14.27;3.80;;;7.70;99.90;;;;;;4957904;28;20035;-89
2023/05/27 04:44:38;;;;;;;15.52;4.30;;;7.80;99.90;;;;;;4940920;29;20027;-89
2023/05/27 04:47:05;;;;;;;18.63;4.32;;;7.90;99.90;;;;;;4954365;28;20411;-89
2023/05/27 04:49:31;;;;;;;15.98;4.05;;;7.90;99.90;;;;;;4948165;28;20023;-89
2023/05/27 04:51:57;;;;;;;13.68;4.45;;;8.00;99.90;;;;;;4947166;28;20031;-89
2023/05/27 04:54:23;;;;;;;22.85;4.47;;;8.10;99.90;;;;;;4954141;28;20023;-89
2023/05/27 04:56:51;;;;;;;23.42;4.40;;;8.30;99.90;;;;;;4953669;28;20472;-89
2023/05/27 04:59:19;;;;;;;16.42;4.50;;;8.50;99.90;;;;;;4946291;29;20074;-89
2023/05/27 05:04:29;;;;;;;17.30;3.50;;;9.00;99.90;;;;;;4951828;28;20081;-89
2023/05/27 05:06:55;;;;;;;16.00;3.70;;;9.20;99.90;;;;;;4953273;28;20068;-89
2023/05/27 05:09:21;;;;;;;14.10;3.97;;;9.30;99.90;;;;;;4950418;28;20504;-90
2023/05/27 05:11:47;;;;;;;14.88;3.45;;;9.50;99.90;;;;;;4954318;28;20031;-89
2023/05/27 05:14:12;;;;;;;15.65;3.45;;;9.80;99.90;;;;;;4963400;28;20034;-90
2023/05/27 05:16:38;;;;;;;17.35;3.05;;;10.00;99.90;;;;;;4952623;29;20027;-90
2023/05/27 05:19:03;;;;;;;10.63;3.20;;;10.30;99.90;;;;;;4942281;28;20043;-90
2023/05/27 05:21:29;;;;;;;14.98;3.13;;;10.50;99.90;;;;;;4942362;28;20042;-91
2023/05/27 05:23:55;;;;;;;20.63;3.20;;;10.70;99.90;;;;;;4957717;28;20027;-90
2023/05/27 05:26:20;;;;;;;13.98;2.70;;;10.90;99.90;;;;;;4968372;28;20026;-90
2023/05/27 05:28:46;;;;;;;12.57;2.72;;;11.00;99.90;;;;;;4953276;28;20030;-90
2023/05/27 05:31:12;;;;;;;15.23;2.90;;;11.10;99.90;;;;;;4944011;28;20097;-90
2023/05/27 05:33:37;;;;;;;18.38;3.13;;;11.20;99.90;;;;;;4953660;28;20094;-90
2023/05/27 05:36:03;;;;;;;13.93;3.03;;;11.40;99.90;;;;;;4968942;28;20053;-90
2023/05/27 05:38:29;;;;;;;11.75;3.28;;;11.40;99.90;;;;;;4995917;28;20136;-89
2023/05/27 05:40:56;;;;;;;11.25;3.15;;;11.50;99.90;;;;;;4976134;28;20502;-89
2023/05/27 05:43:21;;;;;;;16.55;2.78;;;11.50;99.90;;;;;;4983272;28;20057;-90
2023/05/27 05:45:47;;;;;;;14.13;3.00;;;11.60;99.90;;;;;;4976505;28;20062;-90
2023/05/27 05:48:12;;;;;;;12.68;3.35;;;11.50;99.90;;;;;;4968044;28;20476;-90
2023/05/27 05:50:38;;;;;;;17.17;3.53;;;11.50;99.90;;;;;;4992762;28;20018;-91
2023/05/27 05:53:03;;;;;;;16.35;3.50;;;11.40;99.90;;;;;;4980250;28;20036;-90
2023/05/27 05:55:29;;;;;;;19.02;3.28;;;11.40;99.90;;;;;;4974152;28;20042;-91
2023/05/27 05:57:55;;;;;;;14.38;3.25;;;11.40;99.90;;;;;;4971306;28;20030;-91
2023/05/27 06:00:22;;;;;;;20.65;3.30;;;11.40;99.90;;;;;;4971704;28;20033;-89
2023/05/27 06:02:47;;;;;;;15.88;3.35;;;11.40;99.90;;;;;;4968664;28;20022;-88
2023/05/27 06:05:13;;;;;;;11.93;2.88;;;11.50;99.90;;;;;;4960820;28;20498;-89
2023/05/27 06:07:39;;;;;;;21.83;3.63;;;11.50;99.90;;;;;;4973136;28;20038;-88
2023/05/27 06:10:05;;;;;;;14.93;3.47;;;11.40;99.90;;;;;;4980348;28;20030;-88
2023/05/27 06:12:30;;;;;;;15.23;3.28;;;11.40;99.90;;;;;;4979608;28;20034;-89
2023/05/27 06:14:56;;;;;;;14.00;3.05;;;11.40;99.90;;;;;;4980307;28;20045;-88
2023/05/27 06:17:21;;;;;;;15.88;3.30;;;11.50;99.90;;;;;;4968401;28;20037;-87
2023/05/27 06:19:47;;;;;;;12.55;3.13;;;11.60;99.90;;;;;;4974313;28;20038;-88
2023/05/27 06:22:12;;;;;;;20.50;3.60;;;11.70;99.90;;;;;;4988506;28;20039;-87
2023/05/27 06:24:38;;;;;;;15.57;3.05;;;11.80;99.90;;;;;;4981190;28;20034;-89
2023/05/27 06:27:04;;;;;;;17.88;4.47;;;11.90;99.90;;;;;;4961138;28;20098;-88
2023/05/27 06:29:29;;;;;;;14.95;4.10;;;11.90;99.90;;;;;;4977816;28;20034;-89
2023/05/27 06:31:55;;;;;;;17.52;3.30;;;11.90;99.90;;;;;;4972850;28;20045;-88
2023/05/27 06:34:20;;;;;;;20.42;4.18;;;11.90;99.90;;;;;;4973450;28;20550;-89
2023/05/27 06:36:48;;;;;;;19.25;4.50;;;11.90;99.90;;;;;;4983795;28;20025;-88
2023/05/27 06:39:14;;;;;;;12.18;3.00;;;12.00;99.90;;;;;;4987314;28;20074;-88
2023/05/27 06:41:40;;;;;;;20.10;4.28;;;12.10;99.90;;;;;;4975104;28;20019;-89
2023/05/27 06:44:06;;;;;;;15.27;3.58;;;12.20;99.90;;;;;;4980454;28;20479;-88
2023/05/27 06:46:32;;;;;;;23.55;5.05;;;12.40;99.90;;;;;;4975703;28;20030;-88
2023/05/27 06:48:57;;;;;;;16.15;3.88;;;12.40;99.90;;;;;;4972542;28;20073;-88
2023/05/27 06:51:23;;;;;;;14.50;3.92;;;12.40;99.90;;;;;;4969311;28;20022;-89
2023/05/27 06:53:48;;;;;;;15.65;3.88;;;12.40;99.90;;;;;;4972565;28;20038;-89
2023/05/27 06:56:14;;;;;;;18.42;4.05;;;12.50;99.90;;;;;;4975353;28;20030;-89
2023/05/27 06:58:40;;;;;;;15.23;4.22;;;12.60;99.90;;;;;;4977221;28;20047;-88
2023/05/27 07:01:06;;;;;;;16.00;4.68;;;12.60;99.90;;;;;;4971682;28;20023;-88
2023/05/27 07:03:31;;;;;;;14.85;3.90;;;12.70;99.90;;;;;;4974608;28;20042;-88
2023/05/27 07:05:57;;;;;;;21.10;4.30;;;12.70;99.90;;;;;;4977676;28;20026;-89
2023/05/27 07:08:22;;;;;;;20.60;4.45;;;12.70;99.90;;;;;;4972853;28;20109;-88
2023/05/27 07:10:48;;;;;;;12.57;3.63;;;12.70;99.90;;;;;;4967245;28;20131;-89
2023/05/27 07:13:13;;;;;;;17.85;4.55;;;12.90;99.90;;;;;;4969636;28;20026;-89
2023/05/27 07:15:39;;;;;;;14.90;3.40;;;12.90;99.90;;;;;;4971556;28;20030;-88
2023/05/27 07:18:05;;;;;;;13.63;3.17;;;12.90;99.90;;;;;;4970468;28;20022;-89
2023/05/27 07:20:32;;;;;;;22.23;4.65;;;13.00;99.90;;;;;;4967913;28;20058;-88
2023/05/27 07:22:57;;;;;;;13.55;3.53;;;13.00;99.90;;;;;;4971342;28;20023;-89
2023/05/27 07:25:23;;;;;;;12.35;2.72;;;13.20;99.90;;;;;;4979932;28;20037;-88
2023/05/27 07:27:48;;;;;;;14.82;3.95;;;13.40;99.90;;;;;;4970894;28;20023;-88
2023/05/27 07:30:15;;;;;;;16.05;3.58;;;13.50;99.90;;;;;;4963020;28;20041;-88
2023/05/27 07:32:40;;;;;;;20.50;4.40;;;13.60;99.90;;;;;;4967435;28;20023;-89
2023/05/27 07:35:06;;;;;;;24.30;4.63;;;13.80;99.90;;;;;;4954220;28;20074;-89
2023/05/27 07:37:32;;;;;;;15.27;4.53;;;13.80;99.90;;;;;;4951703;29;20039;-88
2023/05/27 07:39:57;;;;;;;16.67;4.40;;;13.90;99.90;;;;;;4946483;28;20520;-89
2023/05/27 07:42:23;;;;;;;14.77;3.50;;;14.00;99.90;;;;;;4952538;29;20122;-88
2023/05/27 07:44:49;;;;;;;10.38;3.30;;;14.10;99.90;;;;;;4955072;29;20078;-89
2023/05/27 07:47:15;;;;;;;16.55;4.55;;;14.10;99.90;;;;;;4959426;28;20112;-88
2023/05/27 07:49:40;;;;;;;18.27;4.25;;;14.30;99.90;;;;;;4956720;29;20039;-89
2023/05/27 07:52:06;;;;;;;17.55;5.00;;;14.40;99.90;;;;;;4945946;29;20023;-88
2023/05/27 07:54:32;;;;;;;13.48;3.42;;;14.30;99.90;;;;;;4973543;28;20054;-88
2023/05/27 07:56:57;;;;;;;18.80;5.05;;;14.40;99.90;;;;;;4961686;28;20506;-88
2023/05/27 07:59:23;;;;;;;16.98;4.20;;;14.50;99.90;;;;;;4956488;28;21037;-88
2023/05/27 08:01:49;;;;;;;17.08;4.75;;;14.60;99.90;;;;;;4944242;28;20039;-89
2023/05/27 08:04:16;;;;;;;11.27;3.10;;;14.70;99.90;;;;;;4954101;29;20031;-89
2023/05/27 08:06:42;;;;;;;17.20;4.20;;;14.90;99.90;;;;;;4946682;28;20022;-89
2023/05/27 08:09:12;;;;;;;19.48;4.72;;;15.00;99.90;;;;;;4957338;28;20075;-89
2023/05/27 08:11:38;;;;;;;16.60;4.60;;;15.00;99.90;;;;;;4941360;29;20039;-90
2023/05/27 08:14:03;;;;;;;14.30;3.95;;;15.20;99.90;;;;;;4951892;29;20040;-90
2023/05/27 08:16:29;;;;;;;12.85;3.90;;;15.20;99.90;;;;;;4943629;28;20078;-89
2023/05/27 08:18:54;;;;;;;20.52;5.18;;;15.40;99.90;;;;;;4958523;28;20039;-89
2023/05/27 08:21:20;;;;;;;14.88;4.38;;;15.50;99.90;;;;;;4974023;28;20087;-89
2023/05/27 08:23:46;;;;;;;23.05;6.40;;;15.60;99.90;;;;;;4946489;28;20027;-89
2023/05/27 08:26:11;;;;;;;14.57;4.25;;;15.60;99.90;;;;;;4948284;28;20027;-91
2023/05/27 08:28:37;;;;;;;15.13;4.57;;;15.70;99.90;;;;;;4950954;28;20040;-90
2023/05/27 08:31:08;;;;;;;20.92;5.30;;;15.80;99.90;;;;;;4960867;28;20027;-91
2023/05/27 08:33:33;;;;;;;24.65;5.53;;;15.90;99.90;;;;;;4958689;28;20055;-89
2023/05/27 08:35:59;;;;;;;13.95;4.32;;;16.00;99.90;;;;;;4978603;28;20034;-89
2023/05/27 08:38:25;;;;;;;16.88;5.28;;;15.90;99.90;;;;;;4973399;28;20042;-90
2023/05/27 08:40:51;;;;;;;15.38;5.80;;;16.00;99.90;;;;;;4971538;28;20026;-89
2023/05/27 08:43:17;;;;;;;18.38;4.70;;;16.10;99.90;;;;;;4976111;28;20023;-90
2023/05/27 08:45:43;;;;;;;16.17;5.10;;;16.20;99.90;;;;;;4974884;28;20025;-90
2023/05/27 08:48:10;;;;;;;17.55;5.75;;;16.30;99.90;;;;;;4975036;28;20037;-89
2023/05/27 08:50:36;;;;;;;16.60;5.28;;;16.40;99.90;;;;;;4989325;28;20561;-89
2023/05/27 08:53:03;;;;;;;17.85;4.85;;;16.60;99.90;;;;;;4995082;28;20029;-89
2023/05/27 08:55:30;;;;;;;17.50;4.70;;;16.70;99.90;;;;;;4970981;28;20030;-89
2023/05/27 08:58:01;;;;;;;14.48;4.28;;;16.90;99.90;;;;;;4976178;28;20026;-90
2023/05/27 09:00:27;;;;;;;16.40;4.80;;;17.00;99.90;;;;;;4975252;28;20076;-90
2023/05/27 09:02:56;;;;;;;19.40;5.55;;;16.90;99.90;;;;;;4972743;28;20023;-90
2023/05/27 09:05:22;;;;;;;16.77;5.10;;;16.90;99.90;;;;;;4983861;28;20030;-90
2023/05/27 09:07:47;;;;;;;15.32;4.90;;;16.80;99.90;;;;;;4974802;28;20023;-90
2023/05/27 09:10:15;;;;;;;18.88;6.05;;;16.80;99.90;;;;;;4969844;28;20368;-90
2023/05/27 09:12:44;;;;;;;16.23;5.13;;;16.90;99.90;;;;;;4976003;28;20025;-89
2023/05/27 09:15:11;;;;;;;20.92;6.28;;;16.90;99.90;;;;;;4972619;28;20031;-90
2023/05/27 09:17:44;;;;;;;18.20;4.72;;;17.10;99.90;;;;;;4976023;28;20057;-89
2023/05/27 09:20:11;;;;;;;15.32;5.10;;;17.20;99.90;;;;;;4974926;28;20062;-89
2023/05/27 09:22:37;;;;;;;19.08;5.72;;;17.20;99.90;;;;;;4972086;28;20030;-89
2023/05/27 09:25:03;;;;;;;21.27;5.88;;;17.20;99.90;;;;;;4969763;28;20026;-90
2023/05/27 09:27:31;;;;;;;18.20;5.07;;;17.20;99.90;;;;;;4979055;28;20044;-89
2023/05/27 09:30:05;;;;;;;21.33;6.70;;;17.20;99.90;;;;;;4980597;28;20113;-90
2023/05/27 09:32:31;;;;;;;12.90;3.85;;;17.30;99.90;;;;;;4971163;28;20109;-89
2023/05/27 09:35:01;;;;;;;20.38;5.25;;;17.40;99.90;;;;;;4965652;28;20050;-89
2023/05/27 09:37:32;;;;;;;20.77;6.43;;;17.50;99.90;;;;;;4975019;28;20026;-89
2023/05/27 09:40:09;;;;;;;18.13;5.60;;;17.60;99.90;;;;;;4971217;28;20053;-89
2023/05/27 09:42:46;;;;;;;14.15;4.75;;;17.60;99.90;;;;;;4972041;28;20445;-90
2023/05/27 09:45:17;;;;;;;18.50;5.70;;;17.60;99.90;;;;;;4981085;28;20027;-89
2023/05/27 09:47:48;;;;;;;18.55;5.82;;;17.60;99.50;;;;;;4969983;28;20037;-89
2023/05/27 09:50:15;;;;;;;12.07;4.32;;;17.70;99.20;;;;;;4986064;28;20026;-89
2023/05/27 09:52:47;;;;;;;15.23;4.25;;;17.80;99.50;;;;;;4970191;28;20482;-90
2023/05/27 09:55:14;;;;;;;12.98;4.28;;;18.00;99.40;;;;;;4968152;28;20121;-90
2023/05/27 09:57:40;;;;;;;17.08;3.88;;;18.10;99.00;;;;;;4975256;28;20041;-90
2023/05/27 10:00:11;;;;;;;15.30;4.40;;;18.30;99.10;;;;;;4981096;28;20046;-88
2023/05/27 10:02:38;;;;;;;17.13;4.75;;;18.40;98.20;;;;;;4976869;28;20021;-89
2023/05/27 10:05:07;;;;;;;15.88;5.03;;;18.50;98.10;;;;;;4978474;28;20026;-90
2023/05/27 10:07:36;;;;;;;18.08;5.45;;;18.60;97.10;;;;;;4975056;28;20081;-89
2023/05/27 10:10:02;;;;;;;18.27;4.82;;;18.60;96.50;;;;;;4964944;28;20094;-89
2023/05/27 10:12:28;;;;;;;11.82;3.63;;;18.50;95.90;;;;;;4973390;28;20062;-88
2023/05/27 10:14:55;;;;;;;12.25;3.88;;;18.50;95.80;;;;;;4973357;28;20050;-89
2023/05/27 10:17:21;;;;;;;15.13;4.90;;;18.50;96.20;;;;;;4970053;28;20038;-89
2023/05/27 10:19:56;;;;;;;14.90;4.70;;;18.60;95.70;;;;;;4966747;28;20049;-90
2023/05/27 10:22:23;;;;;;;17.90;4.60;;;18.70;95.70;;;;;;4976446;28;20033;-89
2023/05/27 10:24:49;;;;;;;18.65;5.30;;;18.80;94.70;;;;;;4976028;28;20034;-89
2023/05/27 10:27:15;;;;;;;13.15;4.63;;;18.90;95.20;;;;;;4976915;28;20027;-90
2023/05/27 10:29:41;;;;;;;14.23;4.65;;;19.00;95.50;;;;;;4986393;28;20489;-89
2023/05/27 10:32:07;;;;;;;15.80;5.03;;;19.20;95.20;;;;;;4973293;28;20035;-89
2023/05/27 10:34:43;;;;;;;14.50;4.53;;;19.20;94.70;;;;;;4975726;28;20502;-89
2023/05/27 10:37:11;;;;;;;16.77;3.75;;;19.30;93.90;;;;;;4991246;28;20042;-88
2023/05/27 10:39:37;;;;;;;16.85;4.72;;;19.30;93.60;;;;;;4970428;28;20089;-90
2023/05/27 10:42:02;;;;;;;15.40;4.78;;;19.30;93.00;;;;;;4979756;28;20487;-91
2023/05/27 10:44:35;;;;;;;16.17;4.45;;;19.30;92.50;;;;;;4971340;28;20058;-89
2023/05/27 10:47:19;;;;;;;10.23;3.30;;;19.30;91.70;;;;;;4969278;28;20026;-89
2023/05/27 10:49:47;;;;;;;12.38;3.33;;;19.40;91.50;;;;;;4969641;28;20073;-90
2023/05/27 10:52:15;;;;;;;14.45;3.65;;;19.30;90.10;;;;;;4978003;28;20030;-91
2023/05/27 10:54:46;;;;;;;12.98;3.20;;;19.30;89.80;;;;;;4980277;28;20038;-90
2023/05/27 10:57:12;;;;;;;12.98;3.03;;;19.40;90.00;;;;;;4978854;28;20558;-91
2023/05/27 10:59:58;;;;;;;14.77;3.33;;;19.40;86.40;;;;;;4974493;28;20114;-92
2023/05/27 11:02:24;;;;;;;9.70;2.30;;;19.50;87.40;;;;;;4978250;28;20035;-91
2023/05/27 11:04:50;;;;;;;11.55;3.22;;;19.50;86.60;;;;;;4979387;28;20505;-90
2023/05/27 11:07:20;;;;;;;11.70;3.08;;;19.70;85.60;;;;;;4968251;28;20030;-90
2023/05/27 11:09:53;;;;;;;10.65;2.60;;;19.70;83.80;;;;;;4989716;28;20027;-91
2023/05/27 11:12:20;;;;;;;12.85;3.63;;;19.60;83.60;;;;;;4963933;28;20042;-92
2023/05/27 11:14:53;;;;;;;13.32;2.55;;;19.60;82.50;;;;;;4990199;28;20039;-92
2023/05/27 11:17:20;;;;;;;12.13;3.17;;;19.70;82.30;;;;;;4991382;28;20068;-91
2023/05/27 11:19:46;;;;;;;11.70;3.00;;;19.80;80.80;;;;;;4985877;28;20082;-91
2023/05/27 11:22:12;;;;;;;14.00;3.28;;;19.90;80.00;;;;;;4985655;28;20029;-91
2023/05/27 11:24:38;;;;;;;9.90;2.42;;;19.90;81.30;;;;;;4967447;28;20050;-91
2023/05/27 11:27:11;;;;;;;16.70;3.60;;;20.00;81.90;;;;;;4988745;28;20042;-91
2023/05/27 11:29:49;;;;;;;16.55;3.40;;;20.20;80.00;;;;;;4980972;28;20507;-91
2023/05/27 11:32:20;;;;;;;9.25;1.95;;;20.30;80.10;;;;;;4979835;28;20052;-91
2023/05/27 11:34:46;;;;;;;12.52;2.65;;;20.40;80.60;;;;;;4994519;28;20050;-91
2023/05/27 11:37:12;;;;;;;10.93;2.55;;;20.50;78.50;;;;;;4990967;28;20053;-91
2023/05/27 11:39:48;;;;;;;18.95;4.35;;;20.50;77.90;;;;;;4982108;28;20084;-92
2023/05/27 11:42:14;;;;;;;14.25;3.97;;;20.40;76.90;;;;;;4987505;28;20057;-91
2023/05/27 11:44:50;;;;;;;14.50;2.50;;;20.40;77.30;;;;;;4981641;28;20034;-91
2023/05/27 11:47:16;;;;;;;10.95;3.03;;;20.40;77.10;;;;;;4980734;28;20031;-91
2023/05/27 11:49:42;;;;;;;12.95;2.92;;;20.50;78.40;;;;;;4979416;28;20030;-92
2023/05/27 11:52:10;;;;;;;12.63;2.45;;;20.50;77.00;;;;;;4989283;28;20109;-90
2023/05/27 11:54:38;;;;;;;14.13;3.28;;;20.60;75.60;;;;;;4981478;28;20022;-91
2023/05/27 11:57:06;;;;;;;13.10;2.97;;;20.60;74.60;;;;;;4984814;28;20489;-92
2023/05/27 11:59:33;;;;;;;11.55;3.25;;;20.50;76.60;;;;;;4982867;28;20039;-91
2023/05/27 12:01:58;;;;;;;16.60;3.63;;;20.50;76.40;;;;;;4992324;28;20030;-92
2023/05/27 12:04:24;;;;;;;10.38;2.90;;;20.60;76.20;;;;;;4989816;28;20402;-90
2023/05/27 12:06:50;;;;;;;14.00;2.80;;;20.60;75.10;;;;;;4979518;28;20033;-91
2023/05/27 12:09:16;;;;;;;12.57;3.75;;;20.60;75.80;;;;;;4986502;28;20032;-91
2023/05/27 12:11:41;;;;;;;14.15;3.35;;;20.70;74.30;;;;;;4984772;28;20042;-91
2023/05/27 12:14:07;;;;;;;11.55;2.65;;;20.70;73.80;;;;;;4981591;28;20041;-90
2023/05/27 12:16:33;;;;;;;14.30;3.60;;;20.80;74.40;;;;;;4975411;28;20057;-91
2023/05/27 12:18:58;;;;;;;11.85;3.13;;;20.90;74.10;;;;;;4980618;28;20045;-91
2023/05/27 12:21:25;;;;;;;14.18;3.35;;;21.00;73.20;;;;;;4984376;28;20046;-92
2023/05/27 12:23:50;;;;;;;12.80;3.85;;;21.10;72.40;;;;;;4987650;28;20081;-91
2023/05/27 12:26:17;;;;;;;12.15;3.67;;;21.20;72.30;;;;;;4969722;28;20073;-92
2023/05/27 12:28:43;;;;;;;11.68;2.58;;;21.20;70.30;;;;;;4982686;28;20026;-91
2023/05/27 12:31:08;;;;;;;8.85;2.63;;;21.30;70.90;;;;;;5000144;28;20385;-91
2023/05/27 12:33:34;;;;;;;10.43;2.92;;;21.40;70.60;;;;;;4983528;28;20114;-91
2023/05/27 12:36:00;;;;;;;13.38;3.72;;;21.40;69.00;;;;;;4985218;28;20033;-92
2023/05/27 12:38:26;;;;;;;10.50;2.80;;;21.40;69.80;;;;;;4988316;28;20037;-92
2023/05/27 12:40:52;;;;;;;11.32;2.65;;;21.30;71.10;;;;;;4993770;28;20034;-92